sensor_id;sensor_type;location;lat;lon;timestamp;P1;durP1;ratioP1;P2;durP2;ratioP2
49758;SDS011;35654;46.080;11.118;2023-03-01T00:01:37;29.80;;;13.95;;
49758;SDS011;35654;46.080;11.118;2023-03-01T00:04:04;34.97;;;14.88;;
49758;SDS011;35654;46.080;11.118;2023-03-01T00:08:57;31.88;;;14.38;;
49758;SDS011;35654;46.080;11.118;2023-03-01T00:13:52;35.92;;;14.45;;
49758;SDS011;35654;46.080;11.118;2023-03-01T00:16:30;41.38;;;15.32;;
49758;SDS011;35654;46.080;11.118;2023-03-01T00:19:02;33.53;;;15.02;;
49758;SDS011;35654;46.080;11.118;2023-03-01T00:23:54;38.08;;;15.77;;
49758;SDS011;35654;46.080;11.118;2023-03-01T00:26:22;38.83;;;16.00;;
49758;SDS011;35654;46.080;11.118;2023-03-01T00:28:49;37.78;;;16.60;;
49758;SDS011;35654;46.080;11.118;2023-03-01T00:31:19;42.70;;;17.17;;
49758;SDS011;35654;46.080;11.118;2023-03-01T00:33:46;37.08;;;15.20;;
49758;SDS011;35654;46.080;11.118;2023-03-01T00:36:14;33.25;;;16.80;;
49758;SDS011;35654;46.080;11.118;2023-03-01T00:38:42;39.55;;;16.48;;
49758;SDS011;35654;46.080;11.118;2023-03-01T00:41:16;33.58;;;15.82;;
49758;SDS011;35654;46.080;11.118;2023-03-01T00:43:43;35.33;;;15.40;;
49758;SDS011;35654;46.080;11.118;2023-03-01T00:46:12;41.72;;;15.38;;
49758;SDS011;35654;46.080;11.118;2023-03-01T00:48:41;34.83;;;15.63;;
49758;SDS011;35654;46.080;11.118;2023-03-01T00:53:38;30.55;;;15.00;;
49758;SDS011;35654;46.080;11.118;2023-03-01T00:56:05;33.05;;;15.15;;
49758;SDS011;35654;46.080;11.118;2023-03-01T00:58:34;34.08;;;14.80;;
49758;SDS011;35654;46.080;11.118;2023-03-01T01:01:01;34.72;;;15.23;;
49758;SDS011;35654;46.080;11.118;2023-03-01T01:03:41;34.80;;;15.43;;
49758;SDS011;35654;46.080;11.118;2023-03-01T01:08:39;34.40;;;14.80;;
49758;SDS011;35654;46.080;11.118;2023-03-01T01:11:05;35.03;;;16.48;;
49758;SDS011;35654;46.080;11.118;2023-03-01T01:13:35;32.40;;;15.07;;
49758;SDS011;35654;46.080;11.118;2023-03-01T01:16:04;33.10;;;15.55;;
49758;SDS011;35654;46.080;11.118;2023-03-01T01:18:31;36.50;;;16.30;;
49758;SDS011;35654;46.080;11.118;2023-03-01T01:21:02;34.70;;;15.40;;
49758;SDS011;35654;46.080;11.118;2023-03-01T01:23:33;36.33;;;16.23;;
49758;SDS011;35654;46.080;11.118;2023-03-01T01:26:10;33.42;;;14.85;;
49758;SDS011;35654;46.080;11.118;2023-03-01T01:28:48;36.30;;;15.23;;
49758;SDS011;35654;46.080;11.118;2023-03-01T01:31:16;33.90;;;14.45;;
49758;SDS011;35654;46.080;11.118;2023-03-01T01:33:43;35.55;;;15.75;;
49758;SDS011;35654;46.080;11.118;2023-03-01T01:38:37;33.10;;;13.55;;
49758;SDS011;35654;46.080;11.118;2023-03-01T01:54:32;32.88;;;13.60;;
49758;SDS011;35654;46.080;11.118;2023-03-01T01:57:02;29.40;;;13.25;;
49758;SDS011;35654;46.080;11.118;2023-03-01T01:59:32;36.50;;;13.40;;
49758;SDS011;35654;46.080;11.118;2023-03-01T02:04:28;32.80;;;12.30;;
49758;SDS011;35654;46.080;11.118;2023-03-01T02:07:03;29.48;;;13.23;;
49758;SDS011;35654;46.080;11.118;2023-03-01T02:09:37;30.45;;;13.88;;
49758;SDS011;35654;46.080;11.118;2023-03-01T02:12:04;31.67;;;13.30;;
49758;SDS011;35654;46.080;11.118;2023-03-01T02:14:31;29.95;;;12.50;;
49758;SDS011;35654;46.080;11.118;2023-03-01T02:16:58;26.73;;;12.15;;
49758;SDS011;35654;46.080;11.118;2023-03-01T02:22:02;28.88;;;12.25;;
49758;SDS011;35654;46.080;11.118;2023-03-01T02:24:57;30.08;;;12.35;;
49758;SDS011;35654;46.080;11.118;2023-03-01T02:30:30;28.73;;;12.75;;
49758;SDS011;35654;46.080;11.118;2023-03-01T02:32:59;28.75;;;13.00;;
49758;SDS011;35654;46.080;11.118;2023-03-01T02:35:35;27.02;;;11.95;;
49758;SDS011;35654;46.080;11.118;2023-03-01T02:38:06;27.17;;;12.93;;
49758;SDS011;35654;46.080;11.118;2023-03-01T02:40:34;28.83;;;13.10;;
49758;SDS011;35654;46.080;11.118;2023-03-01T02:43:03;30.45;;;12.23;;
49758;SDS011;35654;46.080;11.118;2023-03-01T02:45:32;26.48;;;12.68;;
49758;SDS011;35654;46.080;11.118;2023-03-01T02:47:58;28.00;;;13.35;;
49758;SDS011;35654;46.080;11.118;2023-03-01T02:52:57;27.85;;;12.32;;
49758;SDS011;35654;46.080;11.118;2023-03-01T02:55:31;25.80;;;12.25;;
49758;SDS011;35654;46.080;11.118;2023-03-01T02:57:57;24.90;;;11.93;;
49758;SDS011;35654;46.080;11.118;2023-03-01T03:00:36;28.25;;;11.93;;
49758;SDS011;35654;46.080;11.118;2023-03-01T03:03:20;27.13;;;12.55;;
49758;SDS011;35654;46.080;11.118;2023-03-01T03:05:47;29.48;;;12.30;;
49758;SDS011;35654;46.080;11.118;2023-03-01T03:08:14;32.15;;;11.98;;
49758;SDS011;35654;46.080;11.118;2023-03-01T03:10:48;27.90;;;11.27;;
49758;SDS011;35654;46.080;11.118;2023-03-01T03:13:15;26.60;;;11.87;;
49758;SDS011;35654;46.080;11.118;2023-03-01T03:15:43;26.58;;;12.43;;
49758;SDS011;35654;46.080;11.118;2023-03-01T03:18:17;28.25;;;11.20;;
49758;SDS011;35654;46.080;11.118;2023-03-01T03:20:44;25.35;;;11.57;;
49758;SDS011;35654;46.080;11.118;2023-03-01T03:23:11;25.67;;;12.00;;
49758;SDS011;35654;46.080;11.118;2023-03-01T03:25:38;26.98;;;11.38;;
49758;SDS011;35654;46.080;11.118;2023-03-01T03:30:34;28.40;;;11.32;;
49758;SDS011;35654;46.080;11.118;2023-03-01T03:33:05;25.20;;;11.98;;
49758;SDS011;35654;46.080;11.118;2023-03-01T03:35:43;25.88;;;11.57;;
49758;SDS011;35654;46.080;11.118;2023-03-01T03:38:12;24.98;;;11.30;;
49758;SDS011;35654;46.080;11.118;2023-03-01T03:40:47;22.13;;;10.80;;
49758;SDS011;35654;46.080;11.118;2023-03-01T03:43:19;26.40;;;12.48;;
49758;SDS011;35654;46.080;11.118;2023-03-01T03:45:47;25.80;;;10.95;;
49758;SDS011;35654;46.080;11.118;2023-03-01T03:48:17;27.50;;;11.20;;
49758;SDS011;35654;46.080;11.118;2023-03-01T03:50:48;28.25;;;12.40;;
49758;SDS011;35654;46.080;11.118;2023-03-01T03:53:15;27.75;;;11.68;;
49758;SDS011;35654;46.080;11.118;2023-03-01T03:55:42;24.33;;;11.40;;
49758;SDS011;35654;46.080;11.118;2023-03-01T03:58:11;26.75;;;12.40;;
49758;SDS011;35654;46.080;11.118;2023-03-01T04:00:41;27.42;;;11.48;;
49758;SDS011;35654;46.080;11.118;2023-03-01T04:03:10;26.13;;;11.23;;
49758;SDS011;35654;46.080;11.118;2023-03-01T04:05:38;28.95;;;12.18;;
49758;SDS011;35654;46.080;11.118;2023-03-01T04:08:07;25.15;;;11.68;;
49758;SDS011;35654;46.080;11.118;2023-03-01T04:10:36;24.27;;;11.90;;
49758;SDS011;35654;46.080;11.118;2023-03-01T04:13:05;22.77;;;11.30;;
49758;SDS011;35654;46.080;11.118;2023-03-01T04:15:33;24.10;;;11.60;;
49758;SDS011;35654;46.080;11.118;2023-03-01T04:18:00;31.70;;;11.65;;
49758;SDS011;35654;46.080;11.118;2023-03-01T04:20:27;23.15;;;11.05;;
49758;SDS011;35654;46.080;11.118;2023-03-01T04:23:00;29.40;;;11.73;;
49758;SDS011;35654;46.080;11.118;2023-03-01T04:25:54;21.90;;;11.10;;
49758;SDS011;35654;46.080;11.118;2023-03-01T04:31:06;24.70;;;11.25;;
49758;SDS011;35654;46.080;11.118;2023-03-01T04:33:53;27.90;;;10.98;;
49758;SDS011;35654;46.080;11.118;2023-03-01T04:36:23;27.17;;;11.70;;
49758;SDS011;35654;46.080;11.118;2023-03-01T04:38:51;29.98;;;12.20;;
49758;SDS011;35654;46.080;11.118;2023-03-01T04:41:19;30.90;;;11.85;;
49758;SDS011;35654;46.080;11.118;2023-03-01T04:43:47;27.83;;;12.68;;
49758;SDS011;35654;46.080;11.118;2023-03-01T04:46:16;26.00;;;12.18;;
49758;SDS011;35654;46.080;11.118;2023-03-01T04:48:44;29.48;;;13.38;;
49758;SDS011;35654;46.080;11.118;2023-03-01T04:51:11;36.22;;;15.68;;
49758;SDS011;35654;46.080;11.118;2023-03-01T04:53:41;31.75;;;14.13;;
49758;SDS011;35654;46.080;11.118;2023-03-01T04:56:07;32.42;;;13.52;;
49758;SDS011;35654;46.080;11.118;2023-03-01T05:00:58;30.85;;;13.60;;
49758;SDS011;35654;46.080;11.118;2023-03-01T05:03:24;28.13;;;12.37;;
49758;SDS011;35654;46.080;11.118;2023-03-01T05:05:51;27.93;;;13.50;;
49758;SDS011;35654;46.080;11.118;2023-03-01T05:08:18;28.25;;;12.50;;
49758;SDS011;35654;46.080;11.118;2023-03-01T05:10:48;24.02;;;11.65;;
49758;SDS011;35654;46.080;11.118;2023-03-01T05:13:17;31.27;;;13.25;;
49758;SDS011;35654;46.080;11.118;2023-03-01T05:15:59;30.63;;;12.55;;
49758;SDS011;35654;46.080;11.118;2023-03-01T05:18:28;31.40;;;13.02;;
49758;SDS011;35654;46.080;11.118;2023-03-01T05:21:02;28.02;;;12.40;;
49758;SDS011;35654;46.080;11.118;2023-03-01T05:26:01;26.35;;;11.68;;
49758;SDS011;35654;46.080;11.118;2023-03-01T05:28:29;29.10;;;13.18;;
49758;SDS011;35654;46.080;11.118;2023-03-01T05:30:56;26.65;;;12.25;;
49758;SDS011;35654;46.080;11.118;2023-03-01T05:33:24;29.98;;;12.63;;
49758;SDS011;35654;46.080;11.118;2023-03-01T05:35:51;26.15;;;12.02;;
49758;SDS011;35654;46.080;11.118;2023-03-01T05:38:19;37.83;;;12.40;;
49758;SDS011;35654;46.080;11.118;2023-03-01T05:40:48;25.17;;;11.25;;
49758;SDS011;35654;46.080;11.118;2023-03-01T05:43:15;27.40;;;10.88;;
49758;SDS011;35654;46.080;11.118;2023-03-01T05:45:43;33.25;;;11.43;;
49758;SDS011;35654;46.080;11.118;2023-03-01T05:48:10;35.17;;;14.13;;
49758;SDS011;35654;46.080;11.118;2023-03-01T05:50:37;50.45;;;17.98;;
49758;SDS011;35654;46.080;11.118;2023-03-01T05:53:05;49.17;;;17.63;;
49758;SDS011;35654;46.080;11.118;2023-03-01T05:55:32;29.55;;;12.63;;
49758;SDS011;35654;46.080;11.118;2023-03-01T05:57:59;24.38;;;11.65;;
49758;SDS011;35654;46.080;11.118;2023-03-01T06:02:54;29.75;;;11.82;;
49758;SDS011;35654;46.080;11.118;2023-03-01T06:05:22;28.67;;;13.07;;
49758;SDS011;35654;46.080;11.118;2023-03-01T06:07:49;32.38;;;12.05;;
49758;SDS011;35654;46.080;11.118;2023-03-01T06:10:16;26.27;;;10.73;;
49758;SDS011;35654;46.080;11.118;2023-03-01T06:12:44;25.35;;;11.55;;
49758;SDS011;35654;46.080;11.118;2023-03-01T06:15:12;25.83;;;11.30;;
49758;SDS011;35654;46.080;11.118;2023-03-01T06:17:41;29.83;;;11.45;;
49758;SDS011;35654;46.080;11.118;2023-03-01T06:20:10;26.25;;;12.10;;
49758;SDS011;35654;46.080;11.118;2023-03-01T06:22:46;32.75;;;11.93;;
49758;SDS011;35654;46.080;11.118;2023-03-01T06:25:13;31.20;;;11.75;;
49758;SDS011;35654;46.080;11.118;2023-03-01T06:27:42;24.33;;;11.15;;
49758;SDS011;35654;46.080;11.118;2023-03-01T06:30:10;27.48;;;10.95;;
49758;SDS011;35654;46.080;11.118;2023-03-01T06:32:38;27.25;;;11.23;;
49758;SDS011;35654;46.080;11.118;2023-03-01T06:35:06;30.27;;;12.43;;
49758;SDS011;35654;46.080;11.118;2023-03-01T06:37:34;26.88;;;11.85;;
49758;SDS011;35654;46.080;11.118;2023-03-01T06:40:02;25.58;;;11.75;;
49758;SDS011;35654;46.080;11.118;2023-03-01T06:42:38;30.83;;;12.15;;
49758;SDS011;35654;46.080;11.118;2023-03-01T06:45:06;31.60;;;13.65;;
49758;SDS011;35654;46.080;11.118;2023-03-01T06:47:34;31.20;;;13.20;;
49758;SDS011;35654;46.080;11.118;2023-03-01T06:52:28;19.87;;;9.03;;
49758;SDS011;35654;46.080;11.118;2023-03-01T06:57:19;35.40;;;12.00;;
49758;SDS011;35654;46.080;11.118;2023-03-01T06:59:46;30.17;;;12.27;;
49758;SDS011;35654;46.080;11.118;2023-03-01T07:02:14;33.17;;;10.90;;
49758;SDS011;35654;46.080;11.118;2023-03-01T07:04:41;31.73;;;10.98;;
49758;SDS011;35654;46.080;11.118;2023-03-01T07:07:08;24.27;;;9.98;;
49758;SDS011;35654;46.080;11.118;2023-03-01T07:09:34;32.90;;;15.15;;
49758;SDS011;35654;46.080;11.118;2023-03-01T07:12:01;20.87;;;9.63;;
49758;SDS011;35654;46.080;11.118;2023-03-01T07:16:52;24.58;;;8.45;;
49758;SDS011;35654;46.080;11.118;2023-03-01T07:19:19;16.92;;;8.35;;
49758;SDS011;35654;46.080;11.118;2023-03-01T07:21:45;24.80;;;10.18;;
49758;SDS011;35654;46.080;11.118;2023-03-01T07:24:10;24.73;;;9.50;;
49758;SDS011;35654;46.080;11.118;2023-03-01T07:26:36;27.53;;;8.47;;
49758;SDS011;35654;46.080;11.118;2023-03-01T07:29:03;24.80;;;8.70;;
49758;SDS011;35654;46.080;11.118;2023-03-01T07:31:32;16.67;;;7.68;;
49758;SDS011;35654;46.080;11.118;2023-03-01T07:33:59;22.63;;;8.82;;
49758;SDS011;35654;46.080;11.118;2023-03-01T07:38:52;23.25;;;9.48;;
49758;SDS011;35654;46.080;11.118;2023-03-01T07:43:45;22.25;;;8.13;;
49758;SDS011;35654;46.080;11.118;2023-03-01T07:46:12;26.73;;;8.20;;
49758;SDS011;35654;46.080;11.118;2023-03-01T07:48:39;17.20;;;7.88;;
49758;SDS011;35654;46.080;11.118;2023-03-01T07:51:06;21.58;;;8.70;;
49758;SDS011;35654;46.080;11.118;2023-03-01T07:53:32;27.35;;;8.07;;
49758;SDS011;35654;46.080;11.118;2023-03-01T07:56:07;21.05;;;7.13;;
49758;SDS011;35654;46.080;11.118;2023-03-01T07:58:35;16.38;;;7.55;;
49758;SDS011;35654;46.080;11.118;2023-03-01T08:01:08;15.73;;;6.53;;
49758;SDS011;35654;46.080;11.118;2023-03-01T08:03:36;17.35;;;6.78;;
49758;SDS011;35654;46.080;11.118;2023-03-01T08:06:03;18.40;;;6.63;;
49758;SDS011;35654;46.080;11.118;2023-03-01T08:08:32;15.65;;;6.57;;
49758;SDS011;35654;46.080;11.118;2023-03-01T08:11:00;19.13;;;7.47;;
49758;SDS011;35654;46.080;11.118;2023-03-01T08:13:28;16.88;;;6.47;;
49758;SDS011;35654;46.080;11.118;2023-03-01T08:16:00;14.82;;;6.47;;
49758;SDS011;35654;46.080;11.118;2023-03-01T08:18:27;13.73;;;6.20;;
49758;SDS011;35654;46.080;11.118;2023-03-01T08:20:53;14.30;;;5.97;;
49758;SDS011;35654;46.080;11.118;2023-03-01T08:23:20;12.20;;;6.10;;
49758;SDS011;35654;46.080;11.118;2023-03-01T08:28:13;13.63;;;5.80;;
49758;SDS011;35654;46.080;11.118;2023-03-01T08:30:40;15.23;;;6.88;;
49758;SDS011;35654;46.080;11.118;2023-03-01T08:33:06;14.88;;;6.22;;
49758;SDS011;35654;46.080;11.118;2023-03-01T08:35:33;16.27;;;6.00;;
49758;SDS011;35654;46.080;11.118;2023-03-01T08:38:00;18.98;;;5.93;;
49758;SDS011;35654;46.080;11.118;2023-03-01T08:40:26;12.38;;;5.80;;
49758;SDS011;35654;46.080;11.118;2023-03-01T08:42:53;16.42;;;5.50;;
49758;SDS011;35654;46.080;11.118;2023-03-01T08:45:19;10.65;;;5.15;;
49758;SDS011;35654;46.080;11.118;2023-03-01T08:47:46;11.00;;;5.25;;
49758;SDS011;35654;46.080;11.118;2023-03-01T08:50:12;9.55;;;4.85;;
49758;SDS011;35654;46.080;11.118;2023-03-01T08:52:39;14.73;;;5.53;;
49758;SDS011;35654;46.080;11.118;2023-03-01T08:55:05;21.00;;;5.43;;
49758;SDS011;35654;46.080;11.118;2023-03-01T08:57:33;13.90;;;6.13;;
49758;SDS011;35654;46.080;11.118;2023-03-01T09:02:26;13.95;;;5.95;;
49758;SDS011;35654;46.080;11.118;2023-03-01T09:04:53;13.77;;;6.38;;
49758;SDS011;35654;46.080;11.118;2023-03-01T09:07:18;13.53;;;5.90;;
49758;SDS011;35654;46.080;11.118;2023-03-01T09:09:44;14.43;;;5.93;;
49758;SDS011;35654;46.080;11.118;2023-03-01T09:12:09;14.20;;;6.33;;
49758;SDS011;35654;46.080;11.118;2023-03-01T09:14:35;12.83;;;5.87;;
49758;SDS011;35654;46.080;11.118;2023-03-01T09:17:03;11.10;;;6.10;;
49758;SDS011;35654;46.080;11.118;2023-03-01T09:19:28;16.10;;;6.47;;
49758;SDS011;35654;46.080;11.118;2023-03-01T09:21:54;14.47;;;4.40;;
49758;SDS011;35654;46.080;11.118;2023-03-01T09:24:21;11.60;;;5.40;;
49758;SDS011;35654;46.080;11.118;2023-03-01T09:26:48;16.98;;;5.22;;
49758;SDS011;35654;46.080;11.118;2023-03-01T09:29:15;14.67;;;4.83;;
49758;SDS011;35654;46.080;11.118;2023-03-01T09:31:43;11.63;;;5.18;;
49758;SDS011;35654;46.080;11.118;2023-03-01T09:34:09;13.27;;;5.17;;
49758;SDS011;35654;46.080;11.118;2023-03-01T09:36:34;9.63;;;5.00;;
49758;SDS011;35654;46.080;11.118;2023-03-01T09:39:00;11.77;;;5.83;;
49758;SDS011;35654;46.080;11.118;2023-03-01T09:44:18;14.05;;;5.35;;
49758;SDS011;35654;46.080;11.118;2023-03-01T09:46:52;11.93;;;5.35;;
49758;SDS011;35654;46.080;11.118;2023-03-01T09:49:19;11.57;;;5.63;;
49758;SDS011;35654;46.080;11.118;2023-03-01T09:51:54;11.10;;;5.53;;
49758;SDS011;35654;46.080;11.118;2023-03-01T09:56:57;10.98;;;5.30;;
49758;SDS011;35654;46.080;11.118;2023-03-01T10:00:30;9.75;;;6.07;;
49758;SDS011;35654;46.080;11.118;2023-03-01T10:02:44;16.55;;;5.95;;
49758;SDS011;35654;46.080;11.118;2023-03-01T10:11:30;10.05;;;5.55;;
49758;SDS011;35654;46.080;11.118;2023-03-01T10:18:59;13.73;;;5.85;;
49758;SDS011;35654;46.080;11.118;2023-03-01T10:21:27;9.98;;;4.80;;
49758;SDS011;35654;46.080;11.118;2023-03-01T10:24:00;14.25;;;5.60;;
49758;SDS011;35654;46.080;11.118;2023-03-01T10:26:38;13.70;;;5.45;;
49758;SDS011;35654;46.080;11.118;2023-03-01T10:29:09;14.63;;;5.60;;
49758;SDS011;35654;46.080;11.118;2023-03-01T10:34:11;11.85;;;4.85;;
49758;SDS011;35654;46.080;11.118;2023-03-01T10:36:41;10.95;;;5.10;;
49758;SDS011;35654;46.080;11.118;2023-03-01T10:39:13;10.80;;;5.10;;
49758;SDS011;35654;46.080;11.118;2023-03-01T10:44:48;9.93;;;5.25;;
49758;SDS011;35654;46.080;11.118;2023-03-01T10:47:22;15.02;;;5.97;;
49758;SDS011;35654;46.080;11.118;2023-03-01T10:49:51;12.95;;;6.68;;
49758;SDS011;35654;46.080;11.118;2023-03-01T10:52:22;16.52;;;6.65;;
49758;SDS011;35654;46.080;11.118;2023-03-01T10:54:52;12.63;;;5.50;;
49758;SDS011;35654;46.080;11.118;2023-03-01T10:57:33;15.18;;;5.28;;
49758;SDS011;35654;46.080;11.118;2023-03-01T11:00:23;11.57;;;5.10;;
49758;SDS011;35654;46.080;11.118;2023-03-01T11:03:12;17.27;;;5.20;;
49758;SDS011;35654;46.080;11.118;2023-03-01T11:05:53;10.73;;;5.22;;
49758;SDS011;35654;46.080;11.118;2023-03-01T11:08:38;12.18;;;5.50;;
49758;SDS011;35654;46.080;11.118;2023-03-01T11:16:25;13.82;;;5.03;;
49758;SDS011;35654;46.080;11.118;2023-03-01T11:19:21;11.73;;;5.38;;
49758;SDS011;35654;46.080;11.118;2023-03-01T11:24:53;11.15;;;5.40;;
49758;SDS011;35654;46.080;11.118;2023-03-01T11:27:35;13.30;;;6.60;;
49758;SDS011;35654;46.080;11.118;2023-03-01T11:30:25;13.00;;;5.70;;
49758;SDS011;35654;46.080;11.118;2023-03-01T11:35:49;14.88;;;7.70;;
49758;SDS011;35654;46.080;11.118;2023-03-01T11:38:25;16.05;;;7.50;;
49758;SDS011;35654;46.080;11.118;2023-03-01T12:03:39;17.70;;;8.07;;
49758;SDS011;35654;46.080;11.118;2023-03-01T12:09:24;23.77;;;8.25;;
49758;SDS011;35654;46.080;11.118;2023-03-01T12:26:40;11.02;;;4.97;;
49758;SDS011;35654;46.080;11.118;2023-03-01T12:49:41;25.15;;;12.73;;
49758;SDS011;35654;46.080;11.118;2023-03-01T12:55:45;23.40;;;7.60;;
49758;SDS011;35654;46.080;11.118;2023-03-01T12:58:17;16.77;;;7.80;;
49758;SDS011;35654;46.080;11.118;2023-03-01T13:09:28;16.42;;;7.05;;
49758;SDS011;35654;46.080;11.118;2023-03-01T13:11:55;16.95;;;7.75;;
49758;SDS011;35654;46.080;11.118;2023-03-01T13:16:48;19.53;;;8.90;;
49758;SDS011;35654;46.080;11.118;2023-03-01T13:19:18;25.45;;;9.52;;
49758;SDS011;35654;46.080;11.118;2023-03-01T13:21:49;17.45;;;9.10;;
49758;SDS011;35654;46.080;11.118;2023-03-01T13:24:50;21.58;;;8.48;;
49758;SDS011;35654;46.080;11.118;2023-03-01T13:27:11;18.67;;;8.77;;
49758;SDS011;35654;46.080;11.118;2023-03-01T13:29:50;18.85;;;8.93;;
49758;SDS011;35654;46.080;11.118;2023-03-01T13:32:49;18.80;;;9.25;;
49758;SDS011;35654;46.080;11.118;2023-03-01T13:37:39;20.40;;;7.72;;
49758;SDS011;35654;46.080;11.118;2023-03-01T13:40:56;15.17;;;7.60;;
49758;SDS011;35654;46.080;11.118;2023-03-01T13:42:51;18.17;;;8.85;;
49758;SDS011;35654;46.080;11.118;2023-03-01T13:47:58;19.63;;;8.55;;
49758;SDS011;35654;46.080;11.118;2023-03-01T13:50:32;16.77;;;7.93;;
49758;SDS011;35654;46.080;11.118;2023-03-01T13:53:04;16.55;;;7.82;;
49758;SDS011;35654;46.080;11.118;2023-03-01T13:55:40;15.75;;;8.15;;
49758;SDS011;35654;46.080;11.118;2023-03-01T14:00:59;28.95;;;11.60;;
49758;SDS011;35654;46.080;11.118;2023-03-01T14:03:27;16.15;;;7.07;;
49758;SDS011;35654;46.080;11.118;2023-03-01T14:06:05;12.98;;;7.60;;
49758;SDS011;35654;46.080;11.118;2023-03-01T14:08:39;13.27;;;6.80;;
49758;SDS011;35654;46.080;11.118;2023-03-01T14:19:19;15.45;;;7.10;;
49758;SDS011;35654;46.080;11.118;2023-03-01T14:22:37;17.70;;;7.10;;
49758;SDS011;35654;46.080;11.118;2023-03-01T14:24:57;45.15;;;22.48;;
49758;SDS011;35654;46.080;11.118;2023-03-01T14:27:28;15.60;;;8.45;;
49758;SDS011;35654;46.080;11.118;2023-03-01T14:29:59;22.52;;;7.60;;
49758;SDS011;35654;46.080;11.118;2023-03-01T14:32:29;16.30;;;7.18;;
49758;SDS011;35654;46.080;11.118;2023-03-01T14:34:57;15.63;;;6.28;;
49758;SDS011;35654;46.080;11.118;2023-03-01T14:37:31;12.43;;;6.25;;
49758;SDS011;35654;46.080;11.118;2023-03-01T14:39:59;13.02;;;6.28;;
49758;SDS011;35654;46.080;11.118;2023-03-01T14:42:28;17.45;;;6.75;;
49758;SDS011;35654;46.080;11.118;2023-03-01T14:45:02;17.90;;;6.88;;
49758;SDS011;35654;46.080;11.118;2023-03-01T14:47:32;13.82;;;6.90;;
49758;SDS011;35654;46.080;11.118;2023-03-01T14:50:05;10.45;;;6.00;;
49758;SDS011;35654;46.080;11.118;2023-03-01T14:52:45;22.48;;;7.38;;
49758;SDS011;35654;46.080;11.118;2023-03-01T14:55:19;16.08;;;7.07;;
49758;SDS011;35654;46.080;11.118;2023-03-01T14:57:50;14.63;;;6.95;;
49758;SDS011;35654;46.080;11.118;2023-03-01T15:00:26;16.13;;;7.10;;
49758;SDS011;35654;46.080;11.118;2023-03-01T15:02:54;19.55;;;8.82;;
49758;SDS011;35654;46.080;11.118;2023-03-01T15:05:29;15.48;;;7.18;;
49758;SDS011;35654;46.080;11.118;2023-03-01T15:07:59;16.67;;;7.10;;
49758;SDS011;35654;46.080;11.118;2023-03-01T15:10:35;18.77;;;7.97;;
49758;SDS011;35654;46.080;11.118;2023-03-01T15:13:19;12.15;;;6.90;;
49758;SDS011;35654;46.080;11.118;2023-03-01T15:15:48;16.13;;;7.20;;
49758;SDS011;35654;46.080;11.118;2023-03-01T15:18:20;17.85;;;6.13;;
49758;SDS011;35654;46.080;11.118;2023-03-01T15:20:48;15.20;;;6.70;;
49758;SDS011;35654;46.080;11.118;2023-03-01T15:23:20;22.08;;;6.93;;
49758;SDS011;35654;46.080;11.118;2023-03-01T15:25:48;14.23;;;7.20;;
49758;SDS011;35654;46.080;11.118;2023-03-01T15:28:21;17.45;;;7.03;;
49758;SDS011;35654;46.080;11.118;2023-03-01T15:30:56;14.85;;;7.00;;
49758;SDS011;35654;46.080;11.118;2023-03-01T15:33:29;16.23;;;7.35;;
49758;SDS011;35654;46.080;11.118;2023-03-01T15:36:03;14.98;;;6.78;;
49758;SDS011;35654;46.080;11.118;2023-03-01T15:38:54;15.68;;;7.38;;
49758;SDS011;35654;46.080;11.118;2023-03-01T15:41:29;14.23;;;7.13;;
49758;SDS011;35654;46.080;11.118;2023-03-01T15:44:00;22.13;;;7.32;;
49758;SDS011;35654;46.080;11.118;2023-03-01T15:46:39;18.67;;;7.88;;
49758;SDS011;35654;46.080;11.118;2023-03-01T15:49:05;22.03;;;8.57;;
49758;SDS011;35654;46.080;11.118;2023-03-01T15:51:53;15.25;;;7.82;;
49758;SDS011;35654;46.080;11.118;2023-03-01T15:54:21;20.30;;;8.40;;
49758;SDS011;35654;46.080;11.118;2023-03-01T15:56:49;19.02;;;8.63;;
49758;SDS011;35654;46.080;11.118;2023-03-01T15:59:16;22.02;;;8.40;;
49758;SDS011;35654;46.080;11.118;2023-03-01T16:01:42;17.55;;;8.38;;
49758;SDS011;35654;46.080;11.118;2023-03-01T16:04:12;22.40;;;8.45;;
49758;SDS011;35654;46.080;11.118;2023-03-01T16:06:46;17.10;;;7.85;;
49758;SDS011;35654;46.080;11.118;2023-03-01T16:09:21;17.48;;;8.23;;
49758;SDS011;35654;46.080;11.118;2023-03-01T16:11:49;18.27;;;7.38;;
49758;SDS011;35654;46.080;11.118;2023-03-01T16:14:17;20.13;;;8.30;;
49758;SDS011;35654;46.080;11.118;2023-03-01T16:16:45;15.00;;;7.60;;
49758;SDS011;35654;46.080;11.118;2023-03-01T16:19:14;16.83;;;7.55;;
49758;SDS011;35654;46.080;11.118;2023-03-01T16:21:42;44.60;;;17.02;;
49758;SDS011;35654;46.080;11.118;2023-03-01T16:24:10;26.52;;;11.60;;
49758;SDS011;35654;46.080;11.118;2023-03-01T16:26:36;22.98;;;9.40;;
49758;SDS011;35654;46.080;11.118;2023-03-01T16:29:04;33.05;;;13.05;;
49758;SDS011;35654;46.080;11.118;2023-03-01T16:31:30;28.33;;;14.45;;
49758;SDS011;35654;46.080;11.118;2023-03-01T16:33:56;18.63;;;8.30;;
49758;SDS011;35654;46.080;11.118;2023-03-01T16:36:23;25.83;;;13.95;;
49758;SDS011;35654;46.080;11.118;2023-03-01T16:38:51;20.02;;;9.85;;
49758;SDS011;35654;46.080;11.118;2023-03-01T16:41:18;20.60;;;8.80;;
49758;SDS011;35654;46.080;11.118;2023-03-01T16:43:45;17.52;;;9.00;;
49758;SDS011;35654;46.080;11.118;2023-03-01T16:46:18;17.17;;;8.25;;
49758;SDS011;35654;46.080;11.118;2023-03-01T16:48:47;22.27;;;8.30;;
49758;SDS011;35654;46.080;11.118;2023-03-01T16:51:13;20.27;;;8.90;;
49758;SDS011;35654;46.080;11.118;2023-03-01T16:53:39;21.33;;;9.38;;
49758;SDS011;35654;46.080;11.118;2023-03-01T16:56:08;27.05;;;9.60;;
49758;SDS011;35654;46.080;11.118;2023-03-01T16:58:36;20.35;;;9.30;;
49758;SDS011;35654;46.080;11.118;2023-03-01T17:01:09;20.30;;;9.70;;
49758;SDS011;35654;46.080;11.118;2023-03-01T17:03:37;24.77;;;9.45;;
49758;SDS011;35654;46.080;11.118;2023-03-01T17:06:08;17.05;;;8.48;;
49758;SDS011;35654;46.080;11.118;2023-03-01T17:08:36;21.33;;;9.65;;
49758;SDS011;35654;46.080;11.118;2023-03-01T17:11:11;21.42;;;9.68;;
49758;SDS011;35654;46.080;11.118;2023-03-01T17:13:40;27.48;;;11.45;;
49758;SDS011;35654;46.080;11.118;2023-03-01T17:16:08;25.70;;;11.80;;
49758;SDS011;35654;46.080;11.118;2023-03-01T17:18:37;39.05;;;13.70;;
49758;SDS011;35654;46.080;11.118;2023-03-01T17:21:05;28.42;;;12.82;;
49758;SDS011;35654;46.080;11.118;2023-03-01T17:23:33;30.70;;;14.23;;
49758;SDS011;35654;46.080;11.118;2023-03-01T17:26:00;38.45;;;16.48;;
49758;SDS011;35654;46.080;11.118;2023-03-01T17:28:29;37.67;;;16.27;;
49758;SDS011;35654;46.080;11.118;2023-03-01T17:31:00;35.42;;;16.25;;
49758;SDS011;35654;46.080;11.118;2023-03-01T17:33:28;36.25;;;17.00;;
49758;SDS011;35654;46.080;11.118;2023-03-01T17:35:58;37.15;;;14.70;;
49758;SDS011;35654;46.080;11.118;2023-03-01T17:38:25;32.92;;;15.25;;
49758;SDS011;35654;46.080;11.118;2023-03-01T20:00:48;45.88;;;24.17;;
49758;SDS011;35654;46.080;11.118;2023-03-01T20:03:21;47.55;;;25.15;;
49758;SDS011;35654;46.080;11.118;2023-03-01T20:05:46;44.83;;;24.47;;
49758;SDS011;35654;46.080;11.118;2023-03-01T20:08:12;43.23;;;22.47;;